Terminal Aerodrome Forecast
Issued by NWS

Home | Current Version | Previous Version | Text Only | Print | Product List | Glossary On
Versions: 1 2 3 4 5 6 7 8 9 10 11 12 13 14 15 16 17 18 19 20 21 22 23 24 25 26 27 28 29
000
FTUS44 KFWD 010303 AAB
TAFDAL
TAF AMD
KDAL 010303Z 0103/0124 11012KT P6SM -RA SCT050 OVC110
     FM010600 10006KT 5SM BR OVC110
     FM010900 12009KT 5SM BR VCTS BKN020CB OVC100
      TEMPO 0109/0112 36015G25KT 2SM TSRA BKN015CB OVC100
     FM011500 13010KT P6SM BKN025 BKN150
     FM012000 13010KT P6SM VCTS BKN040CB=

USA.gov is the U.S. government's official web portal to all federal, state and local government web resources and services.